Time;durP1;ratioP1;P1;durP2;ratioP2;P2;SDS_P1;SDS_P2;PMS_P1;PMS_P2;Temp;Humidity;BMP_temperature;BMP_pressure;BME280_temperature;BME280_humidity;BME280_pressure;Samples;Min_cycle;Max_cycle;Signal;HPM_P1;HPM_P2
2022/08/29 00:02:02;;;;;;;3.22;0.30;;;17.60;94.60;;;;;;10490131;28;20063;-83
2022/08/29 00:07:04;;;;;;;2.20;0.20;;;17.60;94.70;;;;;;10494061;28;20047;-82
2022/08/29 00:12:06;;;;;;;0.93;0.20;;;17.60;94.80;;;;;;10287176;28;20049;-83
2022/08/29 00:17:19;;;;;;;4.43;0.40;;;17.50;95.00;;;;;;10326663;28;20075;-83
2022/08/29 00:22:22;;;;;;;1.65;0.28;;;17.50;95.10;;;;;;10427270;28;20405;-83
2022/08/29 00:27:26;;;;;;;2.15;0.20;;;17.40;95.20;;;;;;10294303;28;20493;-83
2022/08/29 00:32:33;;;;;;;0.73;0.20;;;17.40;95.30;;;;;;10319487;28;20132;-83
2022/08/29 00:37:36;;;;;;;2.25;0.20;;;17.40;95.40;;;;;;10450085;28;20574;-82
2022/08/29 00:42:38;;;;;;;3.17;0.20;;;17.30;95.50;;;;;;10417481;28;20048;-82
2022/08/29 00:47:48;;;;;;;1.75;0.22;;;17.30;95.60;;;;;;10374619;28;20135;-82
2022/08/29 00:52:51;;;;;;;3.60;0.30;;;17.30;95.70;;;;;;10432630;28;20537;-82
2022/08/29 00:58:03;;;;;;;3.63;0.65;;;17.30;95.80;;;;;;10467975;28;20052;-81
2022/08/29 01:03:20;;;;;;;5.83;0.30;;;17.20;95.90;;;;;;10465204;28;20040;-82
2022/08/29 01:08:22;;;;;;;1.48;0.20;;;17.10;96.00;;;;;;10494923;28;20074;-81
2022/08/29 01:13:31;;;;;;;2.42;0.38;;;17.10;96.20;;;;;;10496569;28;20048;-83
2022/08/29 01:18:35;;;;;;;1.52;0.40;;;17.00;96.30;;;;;;10470068;28;20048;-82
2022/08/29 01:23:43;;;;;;;1.35;0.30;;;16.90;96.50;;;;;;10482091;28;20049;-83
2022/08/29 01:28:50;;;;;;;1.58;0.30;;;16.90;96.60;;;;;;10476622;28;20063;-82
2022/08/29 01:33:57;;;;;;;2.20;0.25;;;16.80;96.80;;;;;;10467162;28;20139;-84
2022/08/29 01:38:59;;;;;;;1.90;0.30;;;16.80;97.00;;;;;;10448813;28;20402;-82
2022/08/29 01:44:08;;;;;;;3.45;0.20;;;16.70;97.10;;;;;;10492931;28;20051;-82
2022/08/29 01:49:12;;;;;;;1.15;0.20;;;16.70;97.20;;;;;;10483098;28;20048;-82
2022/08/29 01:54:14;;;;;;;1.45;0.25;;;16.60;97.30;;;;;;10476967;28;20047;-82
2022/08/29 01:59:19;;;;;;;0.73;0.30;;;16.60;97.50;;;;;;10480784;28;20036;-82
2022/08/29 02:04:21;;;;;;;5.05;0.43;;;16.50;97.70;;;;;;10482676;28;20052;-83
2022/08/29 02:09:24;;;;;;;3.00;0.30;;;16.50;97.80;;;;;;10497013;28;20047;-82
2022/08/29 02:14:26;;;;;;;4.00;0.22;;;16.40;97.90;;;;;;10502281;28;20044;-82
2022/08/29 02:19:28;;;;;;;5.07;0.40;;;16.30;98.10;;;;;;10481520;28;20517;-82
2022/08/29 02:24:30;;;;;;;1.85;0.20;;;16.30;98.30;;;;;;10476843;28;20048;-82
2022/08/29 02:29:33;;;;;;;3.05;0.28;;;16.20;98.50;;;;;;10496937;28;20119;-82
2022/08/29 02:34:43;;;;;;;1.27;0.20;;;16.10;98.70;;;;;;10483164;28;20127;-82
2022/08/29 02:39:48;;;;;;;1.73;0.30;;;16.00;99.00;;;;;;10483659;28;20174;-82
2022/08/29 02:44:50;;;;;;;2.85;0.35;;;15.90;99.20;;;;;;10453463;28;20052;-81
2022/08/29 02:49:51;;;;;;;2.90;0.40;;;15.80;99.50;;;;;;10488146;28;20058;-81
2022/08/29 02:54:53;;;;;;;3.10;0.40;;;15.70;99.70;;;;;;10463614;28;20051;-81
2022/08/29 02:59:55;;;;;;;2.60;0.30;;;15.60;99.90;;;;;;10491758;28;20448;-83
2022/08/29 03:04:58;;;;;;;3.47;0.30;;;15.50;99.90;;;;;;10495660;28;20074;-83
2022/08/29 03:10:01;;;;;;;2.45;0.40;;;15.40;99.90;;;;;;10475142;28;20059;-82
2022/08/29 03:15:04;;;;;;;1.83;0.55;;;15.40;99.90;;;;;;10476927;28;20055;-82
2022/08/29 03:20:07;;;;;;;2.15;0.30;;;15.30;99.90;;;;;;10478100;28;20044;-82
2022/08/29 03:25:11;;;;;;;2.03;0.40;;;15.30;99.90;;;;;;10487670;28;20044;-82
2022/08/29 03:30:14;;;;;;;3.35;0.50;;;15.30;99.90;;;;;;10474511;28;20398;-82
2022/08/29 03:35:18;;;;;;;1.60;0.40;;;15.20;99.90;;;;;;10478082;28;20122;-82
2022/08/29 03:40:20;;;;;;;3.00;0.43;;;15.10;99.90;;;;;;10498016;28;20040;-82
2022/08/29 03:45:24;;;;;;;3.25;0.43;;;15.10;99.90;;;;;;10479420;28;20056;-81
2022/08/29 03:50:26;;;;;;;1.80;0.40;;;15.00;99.90;;;;;;10483179;28;20070;-81
2022/08/29 03:55:28;;;;;;;2.60;0.40;;;15.00;99.90;;;;;;10475094;28;20051;-81
2022/08/29 04:00:30;;;;;;;3.90;0.50;;;14.90;99.90;;;;;;10493603;28;22421;-81
2022/08/29 04:05:32;;;;;;;3.38;0.30;;;14.90;99.90;;;;;;10481551;28;20052;-82
2022/08/29 04:10:36;;;;;;;2.40;0.45;;;14.80;99.90;;;;;;10452521;28;20392;-82
2022/08/29 04:15:40;;;;;;;5.05;0.57;;;14.80;99.90;;;;;;10437844;28;20471;-81
2022/08/29 04:20:43;;;;;;;2.58;0.60;;;14.80;99.90;;;;;;10450915;28;20045;-82
2022/08/29 04:25:45;;;;;;;2.33;0.50;;;14.80;99.90;;;;;;10455247;28;20049;-82
2022/08/29 04:30:49;;;;;;;4.22;0.70;;;14.70;99.90;;;;;;10456221;28;20041;-82
2022/08/29 04:35:53;;;;;;;3.45;0.40;;;14.60;99.90;;;;;;10461168;28;20400;-87
2022/08/29 04:40:55;;;;;;;2.22;0.43;;;14.60;99.90;;;;;;10460073;28;20430;-87
2022/08/29 04:45:57;;;;;;;3.10;0.55;;;14.60;99.90;;;;;;10460245;28;20127;-87
2022/08/29 04:51:00;;;;;;;6.10;1.27;;;14.60;99.90;;;;;;10450001;28;20110;-80
2022/08/29 04:56:06;;;;;;;1.63;0.40;;;14.60;99.90;;;;;;10438580;28;20058;-80
2022/08/29 05:01:16;;;;;;;2.53;0.50;;;14.60;99.90;;;;;;10449467;28;20495;-85
2022/08/29 05:06:20;;;;;;;2.45;0.50;;;14.60;99.90;;;;;;10457056;28;20059;-81
2022/08/29 05:11:23;;;;;;;2.35;0.40;;;14.60;99.90;;;;;;10448807;28;20056;-82
2022/08/29 05:16:26;;;;;;;2.63;0.50;;;14.60;99.90;;;;;;10476608;28;20048;-82
2022/08/29 05:21:34;;;;;;;4.65;0.30;;;14.70;99.90;;;;;;10452451;28;20135;-81
2022/08/29 05:26:40;;;;;;;2.38;0.43;;;14.80;99.90;;;;;;10454636;28;20048;-82
2022/08/29 05:31:42;;;;;;;3.85;0.43;;;14.80;99.90;;;;;;10469193;28;20118;-82
2022/08/29 05:36:46;;;;;;;12.15;1.15;;;14.80;99.90;;;;;;10454150;28;20055;-80
2022/08/29 05:41:48;;;;;;;12.10;1.40;;;14.90;99.90;;;;;;10456246;28;20045;-80
2022/08/29 05:46:50;;;;;;;12.73;0.80;;;15.00;99.90;;;;;;10458528;28;20053;-81
2022/08/29 05:51:55;;;;;;;5.78;0.70;;;15.10;99.90;;;;;;10440844;28;20045;-81
2022/08/29 05:56:57;;;;;;;7.80;0.60;;;15.20;99.90;;;;;;10460518;28;20051;-81
2022/08/29 06:02:00;;;;;;;4.65;0.65;;;15.30;99.90;;;;;;10444923;28;20041;-85
2022/08/29 06:07:03;;;;;;;5.47;0.73;;;15.30;99.90;;;;;;10464576;28;20131;-81
2022/08/29 06:12:09;;;;;;;4.88;0.60;;;15.50;99.90;;;;;;10486753;28;20058;-80
2022/08/29 06:17:11;;;;;;;6.40;0.70;;;15.60;99.90;;;;;;10485749;28;20044;-87
2022/08/29 06:22:13;;;;;;;3.42;0.50;;;15.80;99.90;;;;;;10476126;28;20056;-86
2022/08/29 06:27:15;;;;;;;5.38;0.98;;;16.00;99.90;;;;;;10489455;28;20056;-86
2022/08/29 06:32:17;;;;;;;4.68;0.50;;;16.10;99.90;;;;;;10481731;28;20071;-86
2022/08/29 06:37:19;;;;;;;7.63;1.38;;;16.20;99.90;;;;;;10473793;28;20093;-86
2022/08/29 06:42:23;;;;;;;4.35;0.70;;;16.40;99.90;;;;;;10464919;28;20591;-86
2022/08/29 06:47:29;;;;;;;3.20;0.70;;;16.50;99.90;;;;;;10446728;28;20095;-86
2022/08/29 06:52:31;;;;;;;2.70;0.40;;;16.70;99.90;;;;;;10467919;28;20051;-86
2022/08/29 06:57:41;;;;;;;4.53;0.45;;;16.70;99.90;;;;;;10457243;28;20480;-85
2022/08/29 07:02:46;;;;;;;2.03;0.40;;;16.80;99.90;;;;;;10465144;28;20075;-85
2022/08/29 07:07:59;;;;;;;5.03;0.60;;;17.00;99.90;;;;;;10466710;28;20059;-86
2022/08/29 07:13:02;;;;;;;6.40;0.60;;;17.10;99.90;;;;;;10450432;28;20406;-85
2022/08/29 07:18:06;;;;;;;1.65;0.45;;;17.30;99.90;;;;;;10443858;28;20067;-85
2022/08/29 07:23:11;;;;;;;5.78;0.50;;;17.50;99.90;;;;;;10471716;28;20514;-85
2022/08/29 07:28:13;;;;;;;2.33;0.60;;;17.70;99.90;;;;;;10450630;28;20105;-85
2022/08/29 07:33:16;;;;;;;3.88;0.50;;;17.90;99.90;;;;;;10471651;28;20044;-85
2022/08/29 07:38:19;;;;;;;6.13;0.57;;;18.10;99.90;;;;;;10385296;28;20435;-85
2022/08/29 07:43:21;;;;;;;9.80;0.52;;;18.30;99.90;;;;;;10488930;28;20051;-86
2022/08/29 07:48:29;;;;;;;4.65;0.55;;;18.40;99.90;;;;;;10476341;28;20052;-85
2022/08/29 07:53:34;;;;;;;3.83;0.60;;;18.60;99.90;;;;;;10478445;28;20439;-86
2022/08/29 07:58:36;;;;;;;7.93;0.60;;;18.80;99.90;;;;;;10489963;28;20040;-85
2022/08/29 08:03:38;;;;;;;4.45;0.60;;;19.00;99.90;;;;;;10445939;28;20681;-86
2022/08/29 08:08:40;;;;;;;4.40;0.70;;;19.30;99.90;;;;;;10434702;28;20557;-86
2022/08/29 08:13:44;;;;;;;2.17;0.43;;;19.60;99.90;;;;;;10424487;28;20052;-85
2022/08/29 08:18:48;;;;;;;2.85;0.45;;;19.80;99.70;;;;;;10460838;28;20036;-86
2022/08/29 08:23:51;;;;;;;2.10;0.50;;;20.10;98.80;;;;;;10423901;28;20066;-86
2022/08/29 08:28:53;;;;;;;2.53;0.63;;;20.30;98.50;;;;;;10449726;28;20950;-86
2022/08/29 08:33:56;;;;;;;2.97;0.50;;;20.50;97.90;;;;;;10465805;28;20052;-85
2022/08/29 08:38:59;;;;;;;3.72;0.40;;;20.70;97.90;;;;;;10454903;28;20067;-88
2022/08/29 08:44:33;;;;;;;3.00;0.70;;;20.80;97.70;;;;;;10467654;28;20048;-87
2022/08/29 08:49:39;;;;;;;1.65;0.50;;;20.70;96.70;;;;;;10483932;28;20102;-87
2022/08/29 08:54:52;;;;;;;2.20;0.63;;;20.60;97.40;;;;;;10468325;28;20132;-87
2022/08/29 08:59:57;;;;;;;6.60;0.50;;;20.90;96.90;;;;;;10470753;28;20052;-87
2022/08/29 09:05:06;;;;;;;5.25;0.80;;;20.90;96.60;;;;;;10394194;28;20119;-88
2022/08/29 09:10:54;;;;;;;6.72;0.98;;;21.00;96.90;;;;;;10483508;28;20074;-87
2022/08/29 09:16:04;;;;;;;3.55;0.47;;;21.00;96.70;;;;;;10457611;28;20043;-87
2022/08/29 09:21:13;;;;;;;3.08;0.43;;;21.10;96.40;;;;;;10495047;28;20072;-86
2022/08/29 09:26:34;;;;;;;5.93;0.50;;;21.20;96.50;;;;;;10461995;28;20052;-86
2022/08/29 09:31:36;;;;;;;4.95;0.50;;;21.30;96.10;;;;;;10464407;28;20044;-86
2022/08/29 09:36:47;;;;;;;3.47;0.60;;;21.60;96.20;;;;;;10474057;28;20052;-86
2022/08/29 09:41:56;;;;;;;1.85;0.40;;;21.80;95.30;;;;;;10494777;28;20117;-87
2022/08/29 09:47:18;;;;;;;4.53;0.40;;;22.10;95.00;;;;;;10479505;28;20048;-86
2022/08/29 09:52:23;;;;;;;1.88;0.40;;;22.20;94.00;;;;;;10486756;28;20131;-86
2022/08/29 09:57:27;;;;;;;4.32;0.30;;;22.50;92.70;;;;;;10479051;28;20048;-88
2022/08/29 10:02:37;;;;;;;2.22;0.30;;;22.80;92.70;;;;;;10503798;28;20044;-88
2022/08/29 10:07:51;;;;;;;1.10;0.20;;;22.90;91.70;;;;;;10457895;28;20048;-88
2022/08/29 10:13:17;;;;;;;2.25;0.30;;;23.00;90.40;;;;;;10441004;28;20044;-88
2022/08/29 10:18:36;;;;;;;1.83;0.30;;;23.20;90.60;;;;;;10480469;28;20047;-88
2022/08/29 10:24:04;;;;;;;1.25;0.20;;;23.30;90.30;;;;;;10471099;28;20128;-88
2022/08/29 10:29:20;;;;;;;3.30;0.38;;;23.50;89.90;;;;;;10475603;28;20265;-89
2022/08/29 10:34:37;;;;;;;3.33;0.40;;;23.70;88.40;;;;;;10464330;28;20051;-88
2022/08/29 10:39:51;;;;;;;1.33;0.40;;;23.90;88.60;;;;;;10409045;28;20045;-89
2022/08/29 10:45:14;;;;;;;0.93;0.30;;;24.30;87.40;;;;;;10500593;28;20064;-89
2022/08/29 10:50:36;;;;;;;0.88;0.20;;;24.60;86.00;;;;;;10482946;28;20092;-89
2022/08/29 10:56:03;;;;;;;3.15;0.60;;;24.70;84.60;;;;;;10461631;28;20036;-89
2022/08/29 11:01:10;;;;;;;0.82;0.35;;;24.90;85.10;;;;;;10472198;28;20048;-89
2022/08/29 11:06:27;;;;;;;5.00;0.30;;;25.00;83.80;;;;;;10453356;28;20044;-88
2022/08/29 11:11:32;;;;;;;2.35;0.40;;;25.20;82.70;;;;;;10486521;28;20056;-89
2022/08/29 11:16:42;;;;;;;2.25;0.20;;;25.10;81.40;;;;;;10464804;28;20058;-89
2022/08/29 11:22:22;;;;;;;2.17;0.38;;;25.30;82.10;;;;;;10486555;28;20105;-89
2022/08/29 11:27:53;;;;;;;1.75;0.30;;;25.60;81.10;;;;;;10468451;28;20101;-89
2022/08/29 11:33:02;;;;;;;2.53;0.40;;;25.60;80.80;;;;;;10481050;28;20048;-89
2022/08/29 11:38:22;;;;;;;1.80;0.30;;;25.60;78.80;;;;;;10479186;28;20544;-89
2022/08/29 11:43:34;;;;;;;6.80;0.40;;;25.70;80.40;;;;;;10496413;28;20044;-89
2022/08/29 11:48:45;;;;;;;1.27;0.28;;;25.70;79.60;;;;;;10483488;28;20048;-89
2022/08/29 11:53:47;;;;;;;5.93;0.30;;;26.00;79.40;;;;;;10476706;28;20064;-90
2022/08/29 11:58:55;;;;;;;3.97;0.30;;;26.00;79.00;;;;;;10483124;28;20088;-89
2022/08/29 12:03:57;;;;;;;2.00;0.30;;;26.20;78.00;;;;;;10489635;28;20067;-89
2022/08/29 12:09:16;;;;;;;5.32;0.32;;;26.20;77.00;;;;;;10489157;28;20041;-89
2022/08/29 12:14:34;;;;;;;3.85;0.40;;;26.40;77.90;;;;;;10478502;28;20055;-89
2022/08/29 12:19:55;;;;;;;6.22;0.40;;;26.50;75.80;;;;;;10481227;28;20052;-89
2022/08/29 12:24:56;;;;;;;2.38;0.20;;;26.80;77.50;;;;;;10503870;28;20062;-89
2022/08/29 12:29:58;;;;;;;4.55;0.40;;;27.00;76.00;;;;;;10484342;28;20495;-89
2022/08/29 12:35:25;;;;;;;2.15;0.70;;;27.00;76.40;;;;;;10473438;28;20056;-89
2022/08/29 12:40:33;;;;;;;3.22;0.40;;;27.30;75.90;;;;;;10482932;28;20130;-89
2022/08/29 12:45:40;;;;;;;3.95;0.35;;;27.50;73.20;;;;;;10470180;28;20114;-89
2022/08/29 12:50:46;;;;;;;2.72;0.40;;;27.40;74.80;;;;;;10482925;28;20558;-89
2022/08/29 12:55:58;;;;;;;2.60;0.40;;;27.70;72.50;;;;;;10482823;28;20542;-90
2022/08/29 13:01:01;;;;;;;2.92;0.45;;;27.60;72.40;;;;;;10495502;28;20462;-90
2022/08/29 13:06:12;;;;;;;1.45;0.30;;;27.80;71.10;;;;;;10487813;28;20434;-89
2022/08/29 13:11:19;;;;;;;3.83;0.30;;;28.00;72.30;;;;;;10467976;28;20068;-89
2022/08/29 13:16:25;;;;;;;2.13;0.30;;;28.30;70.50;;;;;;10465962;28;20127;-89
2022/08/29 13:21:30;;;;;;;1.45;0.70;;;28.60;70.50;;;;;;10484916;28;20166;-89
2022/08/29 13:26:33;;;;;;;;;;;28.80;69.00;;;;;;10483054;28;20127;-89
2022/08/29 13:31:36;;;;;;;2.83;0.40;;;29.10;69.30;;;;;;10487938;28;19920;-90
2022/08/29 13:37:10;;;;;;;1.25;0.40;;;29.30;68.30;;;;;;10485799;28;20465;-90
2022/08/29 13:42:26;;;;;;;2.30;0.28;;;29.40;67.90;;;;;;10499892;28;20474;-89
2022/08/29 13:47:31;;;;;;;4.28;0.40;;;29.40;66.50;;;;;;10465119;28;20425;-90
2022/08/29 13:52:33;;;;;;;2.35;0.30;;;29.60;67.00;;;;;;10504605;28;20825;-90
2022/08/29 13:57:39;;;;;;;3.00;0.38;;;29.70;66.00;;;;;;10481593;28;20149;-89
2022/08/29 14:02:41;;;;;;;1.77;0.43;;;30.00;65.50;;;;;;10475374;28;20087;-90
2022/08/29 14:07:46;;;;;;;1.85;0.25;;;29.90;64.80;;;;;;10482947;28;20491;-89
2022/08/29 14:12:48;;;;;;;2.53;0.40;;;30.10;64.30;;;;;;10494306;28;20075;-89
2022/08/29 14:17:49;;;;;;;2.10;0.50;;;30.30;64.30;;;;;;10483872;28;20044;-91
2022/08/29 14:22:51;;;;;;;1.58;0.50;;;30.40;63.80;;;;;;10483412;28;20553;-90
2022/08/29 14:27:54;;;;;;;4.00;0.38;;;30.30;62.70;;;;;;10471652;28;20055;-90
2022/08/29 14:32:56;;;;;;;1.25;0.38;;;30.50;62.60;;;;;;10497289;28;20048;-90
2022/08/29 14:38:00;;;;;;;0.82;0.30;;;30.60;62.30;;;;;;10478390;28;20558;-90
2022/08/29 14:43:02;;;;;;;1.58;0.30;;;30.90;61.60;;;;;;10484062;28;20049;-89
2022/08/29 14:48:05;;;;;;;1.58;0.20;;;31.10;61.30;;;;;;10503014;28;20064;-89
2022/08/29 14:53:07;;;;;;;5.05;0.43;;;31.40;60.70;;;;;;10493364;28;20060;-89
2022/08/29 14:58:09;;;;;;;1.50;0.20;;;31.20;59.70;;;;;;10473172;28;20052;-89
2022/08/29 15:03:11;;;;;;;1.15;0.52;;;31.30;59.40;;;;;;10485101;28;20043;-89
2022/08/29 15:08:13;;;;;;;0.77;0.30;;;31.00;59.10;;;;;;10483938;28;20052;-90
2022/08/29 15:13:16;;;;;;;6.47;0.40;;;31.10;59.80;;;;;;10477779;28;20048;-90
2022/08/29 15:18:19;;;;;;;3.60;0.30;;;31.10;59.60;;;;;;10462057;28;20040;-89
2022/08/29 15:23:41;;;;;;;3.60;0.47;;;30.90;59.40;;;;;;10474613;28;20040;-90
2022/08/29 15:28:44;;;;;;;1.77;0.40;;;30.80;59.80;;;;;;10493827;28;20084;-89
2022/08/29 15:33:45;;;;;;;4.32;0.60;;;30.60;59.20;;;;;;10482202;28;20418;-89
2022/08/29 15:38:47;;;;;;;4.93;0.30;;;30.30;59.60;;;;;;10475475;28;20040;-89
2022/08/29 15:43:49;;;;;;;2.95;0.40;;;30.00;60.60;;;;;;10470772;28;20052;-89
2022/08/29 15:48:52;;;;;;;1.60;0.30;;;29.70;60.90;;;;;;10419637;28;20052;-90
2022/08/29 15:53:54;;;;;;;2.33;0.50;;;29.40;60.50;;;;;;10492882;28;20048;-89
2022/08/29 15:58:55;;;;;;;2.70;0.40;;;29.30;60.90;;;;;;10465792;28;20037;-89
2022/08/29 16:03:57;;;;;;;1.52;0.40;;;29.20;61.10;;;;;;10473254;28;20045;-89
2022/08/29 16:08:59;;;;;;;5.40;0.40;;;28.90;61.70;;;;;;10486925;28;20075;-89
2022/08/29 16:14:02;;;;;;;2.47;0.40;;;28.90;61.90;;;;;;10492847;28;20059;-89
2022/08/29 16:19:24;;;;;;;3.08;0.30;;;28.90;61.80;;;;;;10477575;28;20044;-89
2022/08/29 16:24:29;;;;;;;0.82;0.43;;;28.60;61.50;;;;;;10503392;28;20406;-89
2022/08/29 16:29:32;;;;;;;0.63;0.30;;;28.50;61.40;;;;;;10470012;28;20047;-89
2022/08/29 16:34:34;;;;;;;1.88;0.30;;;28.40;61.50;;;;;;10481313;28;20051;-89
2022/08/29 16:39:36;;;;;;;1.42;0.40;;;28.10;61.40;;;;;;10476804;28;20334;-89
2022/08/29 16:44:39;;;;;;;1.85;0.65;;;28.00;62.90;;;;;;10499433;28;20048;-89
2022/08/29 16:49:41;;;;;;;0.60;0.22;;;27.80;62.20;;;;;;10485509;28;20036;-89
2022/08/29 16:54:42;;;;;;;1.52;0.30;;;27.80;63.50;;;;;;10480250;28;20040;-89
2022/08/29 16:59:44;;;;;;;4.93;0.60;;;27.60;62.60;;;;;;10505907;28;20491;-89
2022/08/29 17:04:47;;;;;;;1.33;0.32;;;27.50;62.60;;;;;;10492898;28;20036;-89
2022/08/29 17:19:55;;;;;;;2.55;0.30;;;27.10;63.20;;;;;;10497576;28;20072;-89
2022/08/29 17:24:58;;;;;;;0.63;0.28;;;27.00;63.00;;;;;;10480169;28;20117;-89
2022/08/29 17:30:02;;;;;;;1.38;0.30;;;26.90;63.30;;;;;;10471560;28;20410;-89
2022/08/29 17:35:05;;;;;;;3.47;0.40;;;26.70;64.00;;;;;;10499071;28;20146;-89
2022/08/29 17:40:08;;;;;;;1.13;0.40;;;26.40;64.30;;;;;;10483783;28;20504;-89
2022/08/29 17:45:11;;;;;;;2.78;0.30;;;26.20;64.80;;;;;;10465551;28;20482;-89
2022/08/29 17:50:13;;;;;;;2.15;0.50;;;26.00;65.00;;;;;;10477615;28;20506;-89
2022/08/29 17:55:15;;;;;;;2.38;0.40;;;25.80;66.10;;;;;;10486636;28;20055;-89
2022/08/29 18:00:18;;;;;;;5.40;0.50;;;25.50;66.30;;;;;;10474075;28;20044;-89
2022/08/29 18:05:19;;;;;;;7.32;0.55;;;25.30;67.10;;;;;;10484033;28;20071;-91
2022/08/29 18:10:22;;;;;;;1.65;0.40;;;25.00;67.20;;;;;;10475615;28;20056;-89
2022/08/29 18:15:24;;;;;;;4.85;0.40;;;24.80;67.60;;;;;;10497955;28;20056;-89
2022/08/29 18:20:26;;;;;;;2.97;0.40;;;24.50;68.50;;;;;;10471498;28;20048;-89
2022/08/29 18:25:28;;;;;;;2.35;0.30;;;24.20;68.90;;;;;;10497809;28;20049;-90
2022/08/29 18:30:30;;;;;;;2.25;0.40;;;24.00;70.70;;;;;;10487767;28;20164;-89
2022/08/29 18:35:32;;;;;;;5.13;0.60;;;23.70;70.40;;;;;;10488143;28;20044;-89
2022/08/29 18:40:35;;;;;;;3.17;0.40;;;23.50;71.10;;;;;;10482544;28;20060;-89
2022/08/29 18:45:41;;;;;;;4.75;0.68;;;23.40;71.00;;;;;;10497107;28;20052;-89
2022/08/29 18:50:44;;;;;;;1.65;0.40;;;23.20;71.80;;;;;;10489940;28;20066;-89
2022/08/29 18:55:47;;;;;;;1.33;0.40;;;22.90;71.40;;;;;;10491642;28;20060;-89
2022/08/29 19:00:54;;;;;;;4.15;0.60;;;22.80;72.50;;;;;;10488940;28;20101;-89
2022/08/29 19:05:56;;;;;;;6.13;0.38;;;22.60;72.70;;;;;;10508484;23;20068;-66
2022/08/29 19:10:59;;;;;;;7.10;0.70;;;22.50;73.80;;;;;;10412532;28;20496;-65
2022/08/29 19:16:03;;;;;;;4.10;0.50;;;22.30;74.20;;;;;;10472655;28;20057;-65
2022/08/29 19:21:05;;;;;;;2.33;0.50;;;22.20;74.60;;;;;;10478536;28;20495;-66
2022/08/29 19:26:12;;;;;;;1.83;0.40;;;21.90;74.80;;;;;;10480568;28;20053;-66
2022/08/29 19:31:14;;;;;;;;;;;21.80;75.40;;;;;;10458393;28;20496;-63
2022/08/29 19:36:18;;;;;;;2.42;0.40;;;21.60;75.50;;;;;;10467177;28;20397;-64
2022/08/29 19:41:20;;;;;;;3.65;0.30;;;21.40;76.10;;;;;;10439844;28;20049;-63
2022/08/29 19:46:22;;;;;;;4.00;0.40;;;21.20;76.70;;;;;;10463285;28;20052;-63
2022/08/29 19:51:26;;;;;;;2.28;0.73;;;21.10;77.10;;;;;;10465550;28;20110;-64
2022/08/29 19:56:28;;;;;;;4.95;0.43;;;21.00;77.20;;;;;;10467255;28;20052;-63
2022/08/29 20:01:30;;;;;;;1.52;0.30;;;20.90;77.20;;;;;;10457216;28;20083;-63
2022/08/29 20:06:33;;;;;;;1.75;0.40;;;20.80;77.40;;;;;;10458739;28;20049;-63
2022/08/29 20:11:35;;;;;;;1.98;0.45;;;20.70;77.80;;;;;;10467946;28;20368;-62
2022/08/29 20:16:44;;;;;;;6.38;0.50;;;20.60;78.00;;;;;;10468772;28;20041;-62
2022/08/29 20:21:47;;;;;;;1.42;0.40;;;20.60;78.30;;;;;;10459467;28;20098;-66
2022/08/29 20:26:49;;;;;;;3.72;0.40;;;20.50;78.70;;;;;;10449828;28;20057;-66
2022/08/29 20:31:54;;;;;;;3.50;0.57;;;20.50;78.80;;;;;;10455976;28;20052;-66
2022/08/29 20:37:07;;;;;;;1.67;0.40;;;20.40;79.20;;;;;;10447591;28;20045;-66
2022/08/29 20:42:09;;;;;;;1.05;0.40;;;20.40;79.50;;;;;;10448070;28;20115;-66
2022/08/29 20:47:16;;;;;;;6.95;0.50;;;20.30;79.60;;;;;;10446209;28;20056;-66
2022/08/29 20:52:19;;;;;;;2.85;0.30;;;20.20;79.60;;;;;;10431350;28;20040;-65
2022/08/29 20:57:21;;;;;;;2.75;0.57;;;20.20;79.80;;;;;;10452732;28;20044;-65
2022/08/29 21:02:23;;;;;;;1.77;0.60;;;20.20;79.80;;;;;;10458218;28;20056;-65
2022/08/29 21:07:25;;;;;;;2.08;0.47;;;20.10;80.50;;;;;;10459559;28;20608;-65
2022/08/29 21:12:27;;;;;;;1.80;0.43;;;20.00;80.70;;;;;;10452835;28;20101;-66
2022/08/29 21:17:29;;;;;;;1.35;0.40;;;19.90;80.70;;;;;;10449023;28;20107;-67
2022/08/29 21:22:30;;;;;;;1.98;0.73;;;19.80;80.50;;;;;;10458908;28;20056;-67
2022/08/29 21:27:32;;;;;;;2.90;0.45;;;19.70;81.10;;;;;;10450657;28;20048;-66
2022/08/29 21:32:34;;;;;;;1.77;0.47;;;19.60;81.30;;;;;;10457610;28;20434;-66
2022/08/29 21:37:35;;;;;;;1.30;0.30;;;19.50;81.50;;;;;;10448037;28;20048;-66
2022/08/29 21:42:38;;;;;;;1.30;0.50;;;19.40;81.90;;;;;;10450653;28;20102;-67
2022/08/29 21:47:40;;;;;;;2.97;0.30;;;19.40;82.10;;;;;;10455107;28;20390;-67
2022/08/29 21:52:42;;;;;;;1.52;0.30;;;19.40;81.80;;;;;;10452277;28;20048;-66
2022/08/29 22:02:53;;;;;;;3.10;0.35;;;19.30;82.50;;;;;;10453216;28;20518;-66
2022/08/29 22:07:55;;;;;;;3.63;0.30;;;19.20;81.90;;;;;;10451589;28;20055;-67
2022/08/29 22:12:59;;;;;;;2.05;0.40;;;19.20;81.80;;;;;;10445943;28;20102;-66
2022/08/29 22:18:02;;;;;;;4.22;0.32;;;19.20;82.20;;;;;;10454258;28;20052;-66
2022/08/29 22:23:04;;;;;;;2.88;0.47;;;19.10;82.10;;;;;;10452758;28;20109;-66
2022/08/29 22:28:08;;;;;;;1.38;0.40;;;19.10;82.50;;;;;;10456348;28;20052;-66
2022/08/29 22:33:10;;;;;;;1.15;0.30;;;19.00;83.20;;;;;;10450188;28;20488;-67
2022/08/29 22:38:17;;;;;;;;;;;18.90;84.60;;;;;;10451203;28;20056;-65
2022/08/29 22:43:18;;;;;;;1.30;0.38;;;18.80;85.00;;;;;;10452434;28;19924;-66
2022/08/29 22:48:20;;;;;;;3.70;0.60;;;18.50;85.80;;;;;;10452206;28;20044;-66
2022/08/29 22:53:22;;;;;;;3.20;0.40;;;18.40;86.20;;;;;;10451725;28;20113;-66
2022/08/29 22:58:24;;;;;;;4.30;0.30;;;18.20;87.00;;;;;;10448546;28;20572;-66
2022/08/29 23:03:26;;;;;;;5.40;0.30;;;18.00;88.00;;;;;;10446893;28;20040;-66
2022/08/29 23:08:27;;;;;;;6.22;0.73;;;18.00;88.30;;;;;;10439800;28;20110;-66
2022/08/29 23:13:30;;;;;;;6.05;0.60;;;17.90;88.40;;;;;;10449611;28;20107;-66
2022/08/29 23:18:32;;;;;;;6.97;0.40;;;17.90;88.60;;;;;;10440855;28;20050;-66
2022/08/29 23:23:34;;;;;;;3.25;0.43;;;17.80;89.30;;;;;;10451378;28;20056;-66
2022/08/29 23:28:35;;;;;;;5.03;0.40;;;17.70;90.10;;;;;;10449331;28;20044;-65
2022/08/29 23:33:37;;;;;;;2.47;0.20;;;17.60;90.20;;;;;;10449230;28;20051;-66
2022/08/29 23:38:39;;;;;;;1.27;0.60;;;17.60;90.80;;;;;;10435203;28;20067;-66
2022/08/29 23:43:41;;;;;;;1.58;0.50;;;17.40;90.80;;;;;;10445430;28;20051;-66
2022/08/29 23:48:43;;;;;;;3.03;0.98;;;17.30;91.30;;;;;;10450185;28;20059;-66
2022/08/29 23:53:46;;;;;;;2.33;0.60;;;17.10;91.20;;;;;;10445339;28;20049;-66
2022/08/29 23:58:48;;;;;;;1.77;0.40;;;16.90;91.30;;;;;;10456222;28;20095;-66
